Time,TemperatureF,DewpointF,PressureIn,WindDirection,WindDirectionDegrees,WindSpeedMPH,WindSpeedGustMPH,Humidity,HourlyPrecipIn,Conditions,Clouds,dailyrainin,SoftwareType,DateUTC
2013-11-15 00:03:00,35.3,24.0,30.25,SW,226,0.0,0.0,63,0.00,,,0.00,LWC V2.00 B2112,2013-11-15 05:03:00,
2013-11-15 00:08:00,35.5,24.5,30.25,SW,226,0.0,0.0,64,0.00,,,0.00,LWC V2.00 B2112,2013-11-15 05:08:00,
2013-11-15 00:13:00,35.5,24.5,30.25,SW,226,0.0,0.0,64,0.00,,,0.00,LWC V2.00 B2112,2013-11-15 05:13:00,
2013-11-15 00:18:00,35.2,24.3,30.25,SW,226,0.0,0.0,64,0.00,,,0.00,LWC V2.00 B2112,2013-11-15 05:18:00,
2013-11-15 00:23:00,35.2,23.9,30.25,SW,226,0.0,0.0,63,0.00,,,0.00,LWC V2.00 B2112,2013-11-15 05:23:00,
2013-11-15 00:28:00,35.2,25.0,30.25,SW,226,0.0,0.0,66,0.00,,,0.00,LWC V2.00 B2112,2013-11-15 05:28:00,
2013-11-15 00:33:00,35.3,24.4,30.25,SW,226,0.0,0.0,64,0.00,,,0.00,LWC V2.00 B2112,2013-11-15 05:33:00,
2013-11-15 00:38:00,35.3,24.4,30.25,SW,226,0.0,0.0,64,0.00,,,0.00,LWC V2.00 B2112,2013-11-15 05:38:00,
2013-11-15 00:43:00,35.3,24.7,30.25,SW,226,0.0,0.0,65,0.00,,,0.00,LWC V2.00 B2112,2013-11-15 05:43:00,
2013-11-15 00:48:00,35.2,23.9,30.24,SW,226,0.0,0.0,63,0.00,,,0.00,LWC V2.00 B2112,2013-11-15 05:48:00,
2013-11-15 00:53:00,35.2,23.9,30.24,SW,226,0.0,0.0,63,0.00,,,0.00,LWC V2.00 B2112,2013-11-15 05:53:00,
2013-11-15 00:58:00,35.2,23.5,30.24,SW,226,0.0,0.0,62,0.00,,,0.00,LWC V2.00 B2112,2013-11-15 05:58:00,
2013-11-15 01:03:00,35.5,23.8,30.23,SW,226,0.0,0.0,62,0.00,,,0.00,LWC V2.00 B2112,2013-11-15 06:03:00,
2013-11-15 01:08:00,35.9,23.0,30.23,SW,226,0.0,0.0,59,0.00,,,0.00,LWC V2.00 B2112,2013-11-15 06:08:00,
2013-11-15 01:13:00,36.3,23.0,30.23,West,277,0.0,0.0,58,0.00,,,0.00,LWC V2.00 B2112,2013-11-15 06:13:00,
2013-11-15 01:18:00,36.6,23.2,30.23,West,276,0.0,0.0,58,0.00,,,0.00,LWC V2.00 B2112,2013-11-15 06:18:00,
2013-11-15 01:23:00,36.6,24.4,30.23,West,276,0.0,0.0,61,0.00,,,0.00,LWC V2.00 B2112,2013-11-15 06:23:00,
2013-11-15 01:28:00,36.6,23.6,30.23,West,276,0.0,0.0,59,0.00,,,0.00,LWC V2.00 B2112,2013-11-15 06:28:00,
2013-11-15 01:33:00,36.9,23.9,30.23,West,276,0.0,0.0,59,0.00,,,0.00,LWC V2.00 B2112,2013-11-15 06:33:00,
2013-11-15 01:38:00,37.0,23.6,30.23,West,276,0.0,0.0,58,0.00,,,0.00,LWC V2.00 B2112,2013-11-15 06:38:00,
2013-11-15 01:43:00,37.2,23.0,30.23,West,276,0.0,0.0,56,0.00,,,0.00,LWC V2.00 B2112,2013-11-15 06:43:00,
2013-11-15 01:48:00,37.3,23.5,30.23,West,276,0.0,0.0,57,0.00,,,0.00,LWC V2.00 B2112,2013-11-15 06:48:00,
2013-11-15 01:53:00,37.2,23.4,30.23,West,276,0.0,0.0,57,0.00,,,0.00,LWC V2.00 B2112,2013-11-15 06:53:00,
2013-11-15 01:58:00,37.2,22.5,30.23,West,276,0.0,0.0,55,0.00,,,0.00,LWC V2.00 B2112,2013-11-15 06:58:00,
2013-11-15 02:03:00,37.2,23.4,30.23,West,276,0.0,0.0,57,0.00,,,0.00,LWC V2.00 B2112,2013-11-15 07:03:00,
2013-11-15 02:08:00,37.0,22.8,30.23,West,276,0.0,0.0,56,0.00,,,0.00,LWC V2.00 B2112,2013-11-15 07:08:00,
2013-11-15 02:13:00,36.9,22.7,30.23,West,276,0.0,0.0,56,0.00,,,0.00,LWC V2.00 B2112,2013-11-15 07:13:00,
2013-11-15 02:18:00,36.9,22.7,30.23,West,276,0.0,0.0,56,0.00,,,0.00,LWC V2.00 B2112,2013-11-15 07:18:00,
2013-11-15 02:23:00,36.6,23.2,30.23,West,276,0.0,0.0,58,0.00,,,0.00,LWC V2.00 B2112,2013-11-15 07:23:00,
2013-11-15 02:28:00,36.5,23.1,30.23,SSW,200,0.0,0.0,58,0.00,,,0.00,LWC V2.00 B2112,2013-11-15 07:28:00,
2013-11-15 02:33:00,36.6,23.2,30.22,SSW,200,0.0,0.0,58,0.00,,,0.00,LWC V2.00 B2112,2013-11-15 07:33:00,
2013-11-15 02:38:00,36.8,23.0,30.22,SSW,200,0.0,0.0,57,0.00,,,0.00,LWC V2.00 B2112,2013-11-15 07:38:00,
2013-11-15 02:43:00,36.5,23.6,30.22,SSW,200,0.0,0.0,59,0.00,,,0.00,LWC V2.00 B2112,2013-11-15 07:43:00,
2013-11-15 02:48:00,36.2,23.7,30.23,SSW,200,0.0,0.0,60,0.00,,,0.00,LWC V2.00 B2112,2013-11-15 07:48:00,
2013-11-15 02:53:00,36.2,23.7,30.23,SSW,200,0.0,0.0,60,0.00,,,0.00,LWC V2.00 B2112,2013-11-15 07:53:00,
2013-11-15 02:58:00,35.9,24.2,30.23,SSW,200,0.0,0.0,62,0.00,,,0.00,LWC V2.00 B2112,2013-11-15 07:58:00,
2013-11-15 03:03:00,35.9,23.8,30.22,SSW,200,0.0,0.0,61,0.00,,,0.00,LWC V2.00 B2112,2013-11-15 08:03:00,
2013-11-15 03:08:00,35.8,23.7,30.22,SSW,200,0.0,0.0,61,0.00,,,0.00,LWC V2.00 B2112,2013-11-15 08:08:00,
2013-11-15 03:13:00,35.9,22.6,30.22,SSW,200,0.0,0.0,58,0.00,,,0.00,LWC V2.00 B2112,2013-11-15 08:13:00,
2013-11-15 03:18:00,35.9,23.0,30.22,SSW,200,0.0,0.0,59,0.00,,,0.00,LWC V2.00 B2112,2013-11-15 08:18:00,
2013-11-15 03:23:00,35.9,23.0,30.22,SSW,200,0.0,0.0,59,0.00,,,0.00,LWC V2.00 B2112,2013-11-15 08:23:00,
2013-11-15 03:28:00,35.6,23.5,30.22,SSW,200,0.0,0.0,61,0.00,,,0.00,LWC V2.00 B2112,2013-11-15 08:28:00,
2013-11-15 03:33:00,35.3,24.4,30.21,SSW,200,0.0,0.0,64,0.00,,,0.00,LWC V2.00 B2112,2013-11-15 08:33:00,
2013-11-15 03:38:00,35.2,24.3,30.21,SSW,200,0.0,0.0,64,0.00,,,0.00,LWC V2.00 B2112,2013-11-15 08:38:00,
2013-11-15 03:43:00,35.0,23.7,30.21,SSW,200,0.0,0.0,63,0.00,,,0.00,LWC V2.00 B2112,2013-11-15 08:43:00,
2013-11-15 03:48:00,34.9,24.3,30.21,SSW,200,0.0,0.0,65,0.00,,,0.00,LWC V2.00 B2112,2013-11-15 08:48:00,
2013-11-15 03:53:00,34.9,23.6,30.21,SSW,200,0.0,0.0,63,0.00,,,0.00,LWC V2.00 B2112,2013-11-15 08:53:00,
2013-11-15 03:58:00,34.6,23.7,30.21,SSW,200,0.0,0.0,64,0.00,,,0.00,LWC V2.00 B2112,2013-11-15 08:58:00,
2013-11-15 04:03:00,34.4,23.1,30.23,SSW,200,0.0,0.0,63,0.00,,,0.00,LWC V2.00 B2112,2013-11-15 09:03:00,
2013-11-15 04:08:00,34.3,23.4,30.23,SSW,200,0.0,0.0,64,0.00,,,0.00,LWC V2.00 B2112,2013-11-15 09:08:00,
2013-11-15 04:13:00,34.4,22.7,30.23,SSW,200,0.0,0.0,62,0.00,,,0.00,LWC V2.00 B2112,2013-11-15 09:13:00,
2013-11-15 04:18:00,34.4,23.1,30.24,SSW,200,0.0,0.0,63,0.00,,,0.00,LWC V2.00 B2112,2013-11-15 09:18:00,
2013-11-15 04:23:00,34.3,23.8,30.24,SSW,200,0.0,0.0,65,0.00,,,0.00,LWC V2.00 B2112,2013-11-15 09:23:00,
2013-11-15 04:28:00,34.1,23.6,30.24,SSW,200,0.0,0.0,65,0.00,,,0.00,LWC V2.00 B2112,2013-11-15 09:28:00,
2013-11-15 04:33:00,34.0,23.5,30.24,SSW,200,0.0,0.0,65,0.00,,,0.00,LWC V2.00 B2112,2013-11-15 09:33:00,
2013-11-15 04:38:00,34.1,23.2,30.24,West,268,0.0,0.0,64,0.00,,,0.00,LWC V2.00 B2112,2013-11-15 09:38:00,
2013-11-15 04:43:00,34.3,23.4,30.24,West,268,0.0,0.0,64,0.00,,,0.00,LWC V2.00 B2112,2013-11-15 09:43:00,
2013-11-15 04:48:00,34.3,23.8,30.24,West,268,0.0,0.0,65,0.00,,,0.00,LWC V2.00 B2112,2013-11-15 09:48:00,
2013-11-15 04:53:00,34.0,23.5,30.24,West,268,0.0,0.0,65,0.00,,,0.00,LWC V2.00 B2112,2013-11-15 09:53:00,
2013-11-15 04:58:00,34.0,24.2,30.24,West,268,0.0,0.0,67,0.00,,,0.00,LWC V2.00 B2112,2013-11-15 09:58:00,
2013-11-15 05:03:00,33.8,24.0,30.22,West,268,0.0,0.0,67,0.00,,,0.00,LWC V2.00 B2112,2013-11-15 10:03:00,
2013-11-15 05:08:00,33.7,23.9,30.22,West,268,0.0,0.0,67,0.00,,,0.00,LWC V2.00 B2112,2013-11-15 10:08:00,
2013-11-15 05:13:00,33.7,24.3,30.22,West,268,0.0,0.0,68,0.00,,,0.00,LWC V2.00 B2112,2013-11-15 10:13:00,
2013-11-15 05:18:00,34.3,24.1,30.22,SSW,198,0.0,0.0,66,0.00,,,0.00,LWC V2.00 B2112,2013-11-15 10:18:00,
2013-11-15 05:23:00,34.7,24.2,30.22,SSW,198,0.0,0.0,65,0.00,,,0.00,LWC V2.00 B2112,2013-11-15 10:23:00,
2013-11-15 05:28:00,35.0,24.4,30.22,SSW,198,0.0,0.0,65,0.00,,,0.00,LWC V2.00 B2112,2013-11-15 10:28:00,
2013-11-15 05:33:00,35.2,25.0,30.23,SSW,198,0.0,0.0,66,0.00,,,0.00,LWC V2.00 B2112,2013-11-15 10:33:00,
2013-11-15 05:38:00,35.0,24.8,30.23,SSW,198,0.0,0.0,66,0.00,,,0.00,LWC V2.00 B2112,2013-11-15 10:38:00,
2013-11-15 05:43:00,34.7,24.5,30.23,SSW,198,0.0,0.0,66,0.00,,,0.00,LWC V2.00 B2112,2013-11-15 10:43:00,
2013-11-15 05:48:00,34.7,24.5,30.24,SSW,198,0.0,0.0,66,0.00,,,0.00,LWC V2.00 B2112,2013-11-15 10:48:00,
2013-11-15 05:53:00,34.7,24.5,30.24,SSW,198,0.0,0.0,66,0.00,,,0.00,LWC V2.00 B2112,2013-11-15 10:53:00,
2013-11-15 05:58:00,34.7,24.9,30.24,SSW,198,0.0,0.0,67,0.00,,,0.00,LWC V2.00 B2112,2013-11-15 10:58:00,
2013-11-15 06:03:00,34.7,24.9,30.24,SSW,198,0.0,0.0,67,0.00,,,0.00,LWC V2.00 B2112,2013-11-15 11:03:00,
2013-11-15 06:08:00,34.7,24.9,30.24,SSW,198,0.0,0.0,67,0.00,,,0.00,LWC V2.00 B2112,2013-11-15 11:08:00,
2013-11-15 06:13:00,34.9,25.1,30.24,SSW,198,0.0,0.0,67,0.00,,,0.00,LWC V2.00 B2112,2013-11-15 11:13:00,
2013-11-15 06:18:00,35.5,25.3,30.24,NW,323,0.0,0.0,66,0.00,,,0.00,LWC V2.00 B2112,2013-11-15 11:18:00,
2013-11-15 06:23:00,36.2,24.8,30.24,SW,215,0.0,0.0,63,0.00,,,0.00,LWC V2.00 B2112,2013-11-15 11:23:00,
2013-11-15 06:28:00,36.9,25.5,30.24,SSW,212,0.0,0.0,63,0.00,,,0.00,LWC V2.00 B2112,2013-11-15 11:28:00,
2013-11-15 06:33:00,37.0,25.6,30.24,SSW,212,0.0,0.0,63,0.00,,,0.00,LWC V2.00 B2112,2013-11-15 11:33:00,
2013-11-15 06:38:00,37.0,25.6,30.24,SSW,212,0.0,0.0,63,0.00,,,0.00,LWC V2.00 B2112,2013-11-15 11:38:00,
2013-11-15 06:43:00,36.9,25.9,30.24,SSW,212,0.0,0.0,64,0.00,,,0.00,LWC V2.00 B2112,2013-11-15 11:43:00,
2013-11-15 06:48:00,36.9,25.5,30.25,SSW,212,0.0,0.0,63,0.00,,,0.00,LWC V2.00 B2112,2013-11-15 11:48:00,
2013-11-15 06:53:00,36.9,26.2,30.25,SSW,212,0.0,0.0,65,0.00,,,0.00,LWC V2.00 B2112,2013-11-15 11:53:00,
2013-11-15 06:58:00,36.9,26.2,30.25,SSW,212,0.0,0.0,65,0.00,,,0.00,LWC V2.00 B2112,2013-11-15 11:58:00,
2013-11-15 07:03:00,37.2,25.8,30.25,SSW,212,0.0,0.0,63,0.00,,,0.00,LWC V2.00 B2112,2013-11-15 12:03:00,
2013-11-15 07:08:00,37.5,26.1,30.25,SSW,212,0.0,0.0,63,0.00,,,0.00,LWC V2.00 B2112,2013-11-15 12:08:00,
2013-11-15 07:13:00,37.8,26.7,30.25,SSW,212,0.0,0.0,64,0.00,,,0.00,LWC V2.00 B2112,2013-11-15 12:13:00,
2013-11-15 07:18:00,37.9,26.4,30.25,SSW,212,0.0,0.0,63,0.00,,,0.00,LWC V2.00 B2112,2013-11-15 12:18:00,
2013-11-15 07:23:00,38.2,26.7,30.25,SSW,212,0.0,0.0,63,0.00,,,0.00,LWC V2.00 B2112,2013-11-15 12:23:00,
2013-11-15 07:28:00,38.3,26.4,30.25,SSW,212,0.0,0.0,62,0.00,,,0.00,LWC V2.00 B2112,2013-11-15 12:28:00,
2013-11-15 07:33:00,38.6,27.5,30.25,SSW,212,0.0,0.0,64,0.00,,,0.00,LWC V2.00 B2112,2013-11-15 12:33:00,
2013-11-15 07:38:00,38.9,27.4,30.25,SSW,212,0.0,0.0,63,0.00,,,0.00,LWC V2.00 B2112,2013-11-15 12:38:00,
2013-11-15 07:43:00,39.3,27.8,30.25,SSW,212,0.0,0.0,63,0.00,,,0.00,LWC V2.00 B2112,2013-11-15 12:43:00,
2013-11-15 07:48:00,39.8,27.5,30.26,SSW,212,0.0,0.0,61,0.00,,,0.00,LWC V2.00 B2112,2013-11-15 12:48:00,
2013-11-15 07:53:00,40.3,27.5,30.26,SSW,212,0.0,0.0,60,0.00,,,0.00,LWC V2.00 B2112,2013-11-15 12:53:00,
2013-11-15 07:58:00,40.8,27.6,30.26,SSW,211,0.0,0.0,59,0.00,,,0.00,LWC V2.00 B2112,2013-11-15 12:58:00,
2013-11-15 08:03:00,41.3,27.7,30.25,SSW,211,0.0,0.0,58,0.00,,,0.00,LWC V2.00 B2112,2013-11-15 13:03:00,
2013-11-15 08:08:00,41.9,28.2,30.25,SSW,211,0.0,0.0,58,0.00,,,0.00,LWC V2.00 B2112,2013-11-15 13:08:00,
2013-11-15 08:13:00,42.3,29.4,30.25,WNW,292,0.0,0.0,60,0.00,,,0.00,LWC V2.00 B2112,2013-11-15 13:13:00,
2013-11-15 08:18:00,42.6,28.4,30.26,West,262,0.0,0.0,57,0.00,,,0.00,LWC V2.00 B2112,2013-11-15 13:18:00,
2013-11-15 08:23:00,43.1,28.9,30.26,West,264,0.0,0.0,57,0.00,,,0.00,LWC V2.00 B2112,2013-11-15 13:23:00,
2013-11-15 08:28:00,43.3,29.1,30.26,WSW,252,0.0,0.0,57,0.00,,,0.00,LWC V2.00 B2112,2013-11-15 13:28:00,
2013-11-15 08:33:00,43.8,30.0,30.25,South,185,0.0,0.0,58,0.00,,,0.00,LWC V2.00 B2112,2013-11-15 13:33:00,
2013-11-15 08:38:00,44.2,29.9,30.25,West,271,0.0,0.0,57,0.00,,,0.00,LWC V2.00 B2112,2013-11-15 13:38:00,
2013-11-15 08:43:00,44.6,29.9,30.25,SSE,163,0.0,0.0,56,0.00,,,0.00,LWC V2.00 B2112,2013-11-15 13:43:00,
2013-11-15 08:48:00,45.1,30.8,30.26,WNW,293,0.0,0.0,57,0.00,,,0.00,LWC V2.00 B2112,2013-11-15 13:48:00,
2013-11-15 08:53:00,45.5,31.6,30.26,WSW,252,0.0,0.0,58,0.00,,,0.00,LWC V2.00 B2112,2013-11-15 13:53:00,
2013-11-15 08:58:00,46.1,31.7,30.26,SSW,200,0.0,0.0,57,0.00,,,0.00,LWC V2.00 B2112,2013-11-15 13:58:00,
2013-11-15 09:03:00,46.7,32.3,30.26,WNW,285,0.0,0.0,57,0.00,,,0.00,LWC V2.00 B2112,2013-11-15 14:03:00,
2013-11-15 09:08:00,47.3,32.8,30.26,West,259,0.0,0.0,57,0.00,,,0.00,LWC V2.00 B2112,2013-11-15 14:08:00,
2013-11-15 09:13:00,48.2,33.2,30.26,West,279,0.0,0.0,56,0.00,,,0.00,LWC V2.00 B2112,2013-11-15 14:13:00,
2013-11-15 09:18:00,48.9,34.3,30.25,SSE,151,0.0,0.0,57,0.00,,,0.00,LWC V2.00 B2112,2013-11-15 14:18:00,
2013-11-15 09:23:00,49.6,34.1,30.25,SW,233,0.0,0.0,55,0.00,,,0.00,LWC V2.00 B2112,2013-11-15 14:23:00,
2013-11-15 09:28:00,50.4,33.9,30.25,WSW,253,0.0,0.0,53,0.00,,,0.00,LWC V2.00 B2112,2013-11-15 14:28:00,
2013-11-15 09:33:00,50.8,35.2,30.26,West,274,0.0,0.0,55,0.00,,,0.00,LWC V2.00 B2112,2013-11-15 14:33:00,
2013-11-15 09:38:00,51.4,34.8,30.26,WSW,248,0.0,0.0,53,0.00,,,0.00,LWC V2.00 B2112,2013-11-15 14:38:00,
2013-11-15 09:43:00,51.6,34.6,30.26,WSW,239,0.0,0.0,52,0.00,,,0.00,LWC V2.00 B2112,2013-11-15 14:43:00,
2013-11-15 09:48:00,51.7,35.6,30.26,WNW,285,0.0,0.0,54,0.00,,,0.00,LWC V2.00 B2112,2013-11-15 14:48:00,
2013-11-15 09:53:00,52.0,34.9,30.26,WSW,245,0.0,0.0,52,0.00,,,0.00,LWC V2.00 B2112,2013-11-15 14:53:00,
2013-11-15 09:58:00,52.3,35.2,30.26,SSE,151,0.0,0.0,52,0.00,,,0.00,LWC V2.00 B2112,2013-11-15 14:58:00,
2013-11-15 10:08:00,52.8,35.2,30.26,SSW,196,0.0,0.0,51,0.00,,,0.00,LWC V2.00 B2112,2013-11-15 15:08:00,
2013-11-15 10:13:00,53.2,35.0,30.26,SSW,205,0.0,0.0,50,0.00,,,0.00,LWC V2.00 B2112,2013-11-15 15:13:00,
2013-11-15 10:18:00,53.5,34.8,30.27,West,281,0.0,0.0,49,0.00,,,0.00,LWC V2.00 B2112,2013-11-15 15:18:00,
2013-11-15 10:23:00,53.8,35.1,30.27,SSW,205,0.0,0.0,49,0.00,,,0.00,LWC V2.00 B2112,2013-11-15 15:23:00,
2013-11-15 10:28:00,53.9,35.7,30.27,SSW,208,0.0,0.0,50,0.00,,,0.00,LWC V2.00 B2112,2013-11-15 15:28:00,
2013-11-15 10:33:00,54.4,35.6,30.27,West,269,0.0,0.0,49,0.00,,,0.00,LWC V2.00 B2112,2013-11-15 15:33:00,
2013-11-15 10:38:00,54.5,34.7,30.27,WNW,295,0.0,0.0,47,0.00,,,0.00,LWC V2.00 B2112,2013-11-15 15:38:00,
2013-11-15 10:43:00,54.8,34.4,30.27,SSW,209,0.0,0.0,46,0.00,,,0.00,LWC V2.00 B2112,2013-11-15 15:43:00,
2013-11-15 10:48:00,55.1,33.6,30.26,WSW,243,0.0,0.0,44,0.00,,,0.00,LWC V2.00 B2112,2013-11-15 15:48:00,
2013-11-15 10:53:00,55.4,34.4,30.26,SSW,210,0.0,0.0,45,0.00,,,0.00,LWC V2.00 B2112,2013-11-15 15:53:00,
2013-11-15 10:58:00,55.9,33.1,30.26,SSW,210,0.0,0.0,42,0.00,,,0.00,LWC V2.00 B2112,2013-11-15 15:58:00,
2013-11-15 11:03:00,56.2,34.0,30.25,WSW,257,0.0,0.0,43,0.00,,,0.00,LWC V2.00 B2112,2013-11-15 16:03:00,
2013-11-15 11:08:00,56.6,33.8,30.25,NNE,13,0.0,0.0,42,0.00,,,0.00,LWC V2.00 B2112,2013-11-15 16:08:00,
2013-11-15 11:13:00,56.9,32.8,30.25,NW,326,0.0,0.0,40,0.00,,,0.00,LWC V2.00 B2112,2013-11-15 16:13:00,
2013-11-15 11:18:00,57.2,33.7,30.25,South,175,0.0,0.0,41,0.00,,,0.00,LWC V2.00 B2112,2013-11-15 16:18:00,
2013-11-15 11:23:00,57.8,33.6,30.25,South,175,0.0,0.0,40,0.00,,,0.00,LWC V2.00 B2112,2013-11-15 16:23:00,
2013-11-15 11:28:00,58.1,35.1,30.25,SSW,195,0.0,0.0,42,0.00,,,0.00,LWC V2.00 B2112,2013-11-15 16:28:00,
2013-11-15 11:33:00,58.4,34.8,30.25,SSW,198,0.0,2.0,41,0.00,,,0.00,LWC V2.00 B2112,2013-11-15 16:33:00,
2013-11-15 11:38:00,58.6,35.6,30.25,South,186,0.0,0.0,42,0.00,,,0.00,LWC V2.00 B2112,2013-11-15 16:38:00,
2013-11-15 11:48:00,59.5,33.9,30.23,WSW,253,0.0,0.0,38,0.00,,,0.00,LWC V2.00 B2112,2013-11-15 16:48:00,
2013-11-15 11:53:00,59.6,33.3,30.23,West,265,0.0,0.0,37,0.00,,,0.00,LWC V2.00 B2112,2013-11-15 16:53:00,
2013-11-15 11:58:00,59.6,32.6,30.23,West,271,0.0,3.0,36,0.00,,,0.00,LWC V2.00 B2112,2013-11-15 16:58:00,
2013-11-15 12:03:00,59.6,34.0,30.23,WNW,290,0.0,0.0,38,0.00,,,0.00,LWC V2.00 B2112,2013-11-15 17:03:00,
2013-11-15 12:08:00,59.6,33.3,30.23,ENE,66,0.0,0.0,37,0.00,,,0.00,LWC V2.00 B2112,2013-11-15 17:08:00,
2013-11-15 12:13:00,59.5,33.2,30.23,SSW,207,0.0,0.0,37,0.00,,,0.00,LWC V2.00 B2112,2013-11-15 17:13:00,
2013-11-15 12:18:00,59.5,35.8,30.21,West,264,0.0,0.0,41,0.00,,,0.00,LWC V2.00 B2112,2013-11-15 17:18:00,
2013-11-15 12:23:00,59.6,33.3,30.21,West,267,0.0,0.0,37,0.00,,,0.00,LWC V2.00 B2112,2013-11-15 17:23:00,
2013-11-15 12:28:00,59.9,34.9,30.21,West,268,0.0,0.0,39,0.00,,,0.00,LWC V2.00 B2112,2013-11-15 17:28:00,
2013-11-15 12:33:00,59.9,33.6,30.20,WSW,249,0.0,0.0,37,0.00,,,0.00,LWC V2.00 B2112,2013-11-15 17:33:00,
2013-11-15 12:38:00,59.9,35.5,30.20,WSW,247,0.0,0.0,40,0.00,,,0.00,LWC V2.00 B2112,2013-11-15 17:38:00,
2013-11-15 12:43:00,59.8,34.1,30.20,NNW,327,0.0,2.0,38,0.00,,,0.00,LWC V2.00 B2112,2013-11-15 17:43:00,
2013-11-15 12:48:00,59.6,34.0,30.20,West,266,0.0,0.0,38,0.00,,,0.00,LWC V2.00 B2112,2013-11-15 17:48:00,
2013-11-15 12:53:00,59.6,34.0,30.20,West,263,0.0,2.0,38,0.00,,,0.00,LWC V2.00 B2112,2013-11-15 17:53:00,
2013-11-15 12:58:00,59.6,34.0,30.20,WSW,248,0.0,0.0,38,0.00,,,0.00,LWC V2.00 B2112,2013-11-15 17:58:00,
2013-11-15 13:03:00,59.5,36.4,30.19,WSW,248,0.0,0.0,42,0.00,,,0.00,LWC V2.00 B2112,2013-11-15 18:03:00,
2013-11-15 13:08:00,59.3,35.0,30.19,West,264,0.0,0.0,40,0.00,,,0.00,LWC V2.00 B2112,2013-11-15 18:08:00,
2013-11-15 13:13:00,59.3,35.0,30.19,West,273,0.0,0.0,40,0.00,,,0.00,LWC V2.00 B2112,2013-11-15 18:13:00,
2013-11-15 13:18:00,59.3,36.2,30.19,West,273,0.0,0.0,42,0.00,,,0.00,LWC V2.00 B2112,2013-11-15 18:18:00,
2013-11-15 13:23:00,59.6,35.9,30.19,SW,230,0.0,4.0,41,0.00,,,0.00,LWC V2.00 B2112,2013-11-15 18:23:00,
2013-11-15 13:33:00,60.1,36.3,30.17,WSW,255,0.0,0.0,41,0.00,,,0.00,LWC V2.00 B2112,2013-11-15 18:33:00,
2013-11-15 13:38:00,60.5,36.1,30.17,SSE,148,0.0,0.0,40,0.00,,,0.00,LWC V2.00 B2112,2013-11-15 18:38:00,
2013-11-15 13:43:00,60.7,36.2,30.17,SSW,194,0.0,0.0,40,0.00,,,0.00,LWC V2.00 B2112,2013-11-15 18:43:00,
2013-11-15 13:48:00,61.0,36.5,30.18,South,184,0.0,0.0,40,0.00,,,0.00,LWC V2.00 B2112,2013-11-15 18:48:00,
2013-11-15 13:53:00,61.2,36.7,30.18,WSW,250,0.0,0.0,40,0.00,,,0.00,LWC V2.00 B2112,2013-11-15 18:53:00,
2013-11-15 13:58:00,61.3,36.8,30.18,East,79,0.0,0.0,40,0.00,,,0.00,LWC V2.00 B2112,2013-11-15 18:58:00,
2013-11-15 14:03:00,61.5,37.0,30.16,West,274,0.0,0.0,40,0.00,,,0.00,LWC V2.00 B2112,2013-11-15 19:03:00,
2013-11-15 14:08:00,61.6,38.3,30.16,WSW,254,2.0,2.0,42,0.00,,,0.00,LWC V2.00 B2112,2013-11-15 19:08:00,
2013-11-15 14:18:00,61.3,37.4,30.17,WSW,245,0.0,0.0,41,0.00,,,0.00,LWC V2.00 B2112,2013-11-15 19:18:00,
2013-11-15 14:23:00,61.2,39.1,30.17,West,264,0.0,0.0,44,0.00,,,0.00,LWC V2.00 B2112,2013-11-15 19:23:00,
2013-11-15 14:28:00,61.0,38.3,30.17,West,268,0.0,0.0,43,0.00,,,0.00,LWC V2.00 B2112,2013-11-15 19:28:00,
2013-11-15 14:38:00,60.9,38.8,30.16,West,266,0.0,0.0,44,0.00,,,0.00,LWC V2.00 B2112,2013-11-15 19:38:00,
2013-11-15 14:43:00,60.7,39.2,30.16,SSW,200,0.0,0.0,45,0.00,,,0.00,LWC V2.00 B2112,2013-11-15 19:43:00,
2013-11-15 14:48:00,60.5,39.1,30.15,SSW,200,0.0,0.0,45,0.00,,,0.00,LWC V2.00 B2112,2013-11-15 19:48:00,
2013-11-15 14:53:00,60.4,39.0,30.15,West,263,0.0,0.0,45,0.00,,,0.00,LWC V2.00 B2112,2013-11-15 19:53:00,
2013-11-15 14:58:00,60.4,39.0,30.15,West,259,0.0,0.0,45,0.00,,,0.00,LWC V2.00 B2112,2013-11-15 19:58:00,
2013-11-15 15:03:00,60.4,41.2,30.15,West,259,0.0,0.0,49,0.00,,,0.00,LWC V2.00 B2112,2013-11-15 20:03:00,
2013-11-15 15:08:00,60.4,39.0,30.15,West,259,0.0,0.0,45,0.00,,,0.00,LWC V2.00 B2112,2013-11-15 20:08:00,
2013-11-15 15:13:00,60.2,39.3,30.15,West,259,0.0,0.0,46,0.00,,,0.00,LWC V2.00 B2112,2013-11-15 20:13:00,
2013-11-15 15:18:00,60.2,39.9,30.15,West,260,0.0,0.0,47,0.00,,,0.00,LWC V2.00 B2112,2013-11-15 20:18:00,
2013-11-15 15:23:00,60.2,39.9,30.15,West,260,0.0,0.0,47,0.00,,,0.00,LWC V2.00 B2112,2013-11-15 20:23:00,
2013-11-15 15:28:00,60.2,40.4,30.15,West,260,0.0,0.0,48,0.00,,,0.00,LWC V2.00 B2112,2013-11-15 20:28:00,
2013-11-15 15:33:00,60.2,39.9,30.14,West,259,0.0,0.0,47,0.00,,,0.00,LWC V2.00 B2112,2013-11-15 20:33:00,
2013-11-15 15:38:00,60.1,40.3,30.14,West,259,0.0,0.0,48,0.00,,,0.00,LWC V2.00 B2112,2013-11-15 20:38:00,
2013-11-15 15:43:00,59.9,40.2,30.14,West,259,0.0,0.0,48,0.00,,,0.00,LWC V2.00 B2112,2013-11-15 20:43:00,
2013-11-15 15:48:00,59.9,40.2,30.14,West,259,0.0,0.0,48,0.00,,,0.00,LWC V2.00 B2112,2013-11-15 20:48:00,
2013-11-15 15:53:00,59.9,41.7,30.14,West,259,0.0,0.0,51,0.00,,,0.00,LWC V2.00 B2112,2013-11-15 20:53:00,
2013-11-15 15:58:00,59.8,40.6,30.14,West,260,0.0,0.0,49,0.00,,,0.00,LWC V2.00 B2112,2013-11-15 20:58:00,
2013-11-15 16:03:00,59.8,41.6,30.15,West,259,0.0,0.0,51,0.00,,,0.00,LWC V2.00 B2112,2013-11-15 21:03:00,
2013-11-15 16:08:00,59.8,41.1,30.15,West,259,0.0,0.0,50,0.00,,,0.00,LWC V2.00 B2112,2013-11-15 21:08:00,
2013-11-15 16:13:00,59.8,41.6,30.15,West,259,0.0,0.0,51,0.00,,,0.00,LWC V2.00 B2112,2013-11-15 21:13:00,
2013-11-15 16:18:00,59.6,40.9,30.14,West,259,0.0,0.0,50,0.00,,,0.00,LWC V2.00 B2112,2013-11-15 21:18:00,
2013-11-15 16:23:00,59.6,43.9,30.14,West,260,0.0,0.0,56,0.00,,,0.00,LWC V2.00 B2112,2013-11-15 21:23:00,
2013-11-15 16:28:00,59.3,43.6,30.14,West,259,0.0,0.0,56,0.00,,,0.00,LWC V2.00 B2112,2013-11-15 21:28:00,
2013-11-15 16:33:00,59.0,42.4,30.14,West,259,0.0,0.0,54,0.00,,,0.00,LWC V2.00 B2112,2013-11-15 21:33:00,
2013-11-15 16:38:00,58.9,41.8,30.14,West,259,0.0,0.0,53,0.00,,,0.00,LWC V2.00 B2112,2013-11-15 21:38:00,
2013-11-15 16:43:00,58.7,42.1,30.14,West,259,0.0,0.0,54,0.00,,,0.00,LWC V2.00 B2112,2013-11-15 21:43:00,
2013-11-15 16:48:00,58.4,41.8,30.14,West,259,0.0,0.0,54,0.00,,,0.00,LWC V2.00 B2112,2013-11-15 21:48:00,
2013-11-15 16:53:00,58.3,41.7,30.14,West,259,0.0,0.0,54,0.00,,,0.00,LWC V2.00 B2112,2013-11-15 21:53:00,
2013-11-15 16:58:00,58.0,42.4,30.14,West,259,0.0,0.0,56,0.00,,,0.00,LWC V2.00 B2112,2013-11-15 21:58:00,
2013-11-15 17:03:00,57.6,42.0,30.14,West,259,0.0,0.0,56,0.00,,,0.00,LWC V2.00 B2112,2013-11-15 22:03:00,
2013-11-15 17:08:00,57.3,42.7,30.14,West,259,0.0,0.0,58,0.00,,,0.00,LWC V2.00 B2112,2013-11-15 22:08:00,
2013-11-15 17:13:00,57.0,42.8,30.14,West,259,0.0,0.0,59,0.00,,,0.00,LWC V2.00 B2112,2013-11-15 22:13:00,
2013-11-15 17:18:00,56.7,42.1,30.14,West,259,0.0,0.0,58,0.00,,,0.00,LWC V2.00 B2112,2013-11-15 22:18:00,
2013-11-15 17:23:00,56.6,42.4,30.14,West,259,0.0,0.0,59,0.00,,,0.00,LWC V2.00 B2112,2013-11-15 22:23:00,
2013-11-15 17:28:00,56.5,43.2,30.14,West,259,0.0,0.0,61,0.00,,,0.00,LWC V2.00 B2112,2013-11-15 22:28:00,
2013-11-15 17:33:00,56.3,43.0,30.13,West,259,0.0,0.0,61,0.00,,,0.00,LWC V2.00 B2112,2013-11-15 22:33:00,
2013-11-15 17:38:00,56.2,42.5,30.13,West,259,0.0,0.0,60,0.00,,,0.00,LWC V2.00 B2112,2013-11-15 22:38:00,
2013-11-15 17:43:00,55.7,43.7,30.13,West,259,0.0,0.0,64,0.00,,,0.00,LWC V2.00 B2112,2013-11-15 22:43:00,
2013-11-15 17:48:00,55.3,43.7,30.13,West,259,0.0,0.0,65,0.00,,,0.00,LWC V2.00 B2112,2013-11-15 22:48:00,
2013-11-15 17:53:00,55.1,43.1,30.13,West,259,0.0,0.0,64,0.00,,,0.00,LWC V2.00 B2112,2013-11-15 22:53:00,
2013-11-15 17:58:00,54.8,43.3,30.13,West,259,0.0,0.0,65,0.00,,,0.00,LWC V2.00 B2112,2013-11-15 22:58:00,
2013-11-15 18:03:00,54.5,43.0,30.13,West,259,0.0,0.0,65,0.00,,,0.00,LWC V2.00 B2112,2013-11-15 23:03:00,
2013-11-15 18:08:00,54.4,42.9,30.13,West,259,0.0,0.0,65,0.00,,,0.00,LWC V2.00 B2112,2013-11-15 23:08:00,
2013-11-15 18:13:00,54.2,42.7,30.13,West,259,0.0,0.0,65,0.00,,,0.00,LWC V2.00 B2112,2013-11-15 23:13:00,
2013-11-15 18:18:00,54.1,43.4,30.14,West,259,0.0,0.0,67,0.00,,,0.00,LWC V2.00 B2112,2013-11-15 23:18:00,
2013-11-15 18:23:00,53.9,43.2,30.14,West,259,0.0,0.0,67,0.00,,,0.00,LWC V2.00 B2112,2013-11-15 23:23:00,
2013-11-15 18:28:00,53.9,43.2,30.14,West,259,0.0,0.0,67,0.00,,,0.00,LWC V2.00 B2112,2013-11-15 23:28:00,
2013-11-15 18:33:00,53.8,43.1,30.13,West,259,0.0,0.0,67,0.00,,,0.00,LWC V2.00 B2112,2013-11-15 23:33:00,
2013-11-15 18:38:00,53.6,42.9,30.13,West,259,0.0,0.0,67,0.00,,,0.00,LWC V2.00 B2112,2013-11-15 23:38:00,
2013-11-15 18:43:00,53.3,43.0,30.13,West,259,0.0,0.0,68,0.00,,,0.00,LWC V2.00 B2112,2013-11-15 23:43:00,
2013-11-15 18:48:00,53.1,42.8,30.14,West,259,0.0,0.0,68,0.00,,,0.00,LWC V2.00 B2112,2013-11-15 23:48:00,
2013-11-15 18:53:00,52.8,42.9,30.14,West,259,0.0,0.0,69,0.00,,,0.00,LWC V2.00 B2112,2013-11-15 23:53:00,
2013-11-15 18:58:00,52.3,42.8,30.14,West,259,0.0,0.0,70,0.00,,,0.00,LWC V2.00 B2112,2013-11-15 23:58:00,
2013-11-15 19:03:00,51.9,42.4,30.15,West,259,0.0,0.0,70,0.00,,,0.00,LWC V2.00 B2112,2013-11-16 00:03:00,
2013-11-15 19:08:00,51.6,42.1,30.15,West,259,0.0,0.0,70,0.00,,,0.00,LWC V2.00 B2112,2013-11-16 00:08:00,
2013-11-15 19:13:00,51.4,42.7,30.15,West,259,0.0,0.0,72,0.00,,,0.00,LWC V2.00 B2112,2013-11-16 00:13:00,
2013-11-15 19:18:00,51.1,42.8,30.14,West,259,0.0,0.0,73,0.00,,,0.00,LWC V2.00 B2112,2013-11-16 00:18:00,
2013-11-15 19:23:00,51.0,43.0,30.14,West,259,0.0,0.0,74,0.00,,,0.00,LWC V2.00 B2112,2013-11-16 00:23:00,
2013-11-15 19:28:00,51.0,43.0,30.14,West,259,0.0,0.0,74,0.00,,,0.00,LWC V2.00 B2112,2013-11-16 00:28:00,
2013-11-15 19:33:00,50.8,43.2,30.14,West,259,0.0,0.0,75,0.00,,,0.00,LWC V2.00 B2112,2013-11-16 00:33:00,
2013-11-15 19:38:00,50.5,42.9,30.14,West,259,0.0,0.0,75,0.00,,,0.00,LWC V2.00 B2112,2013-11-16 00:38:00,
2013-11-15 19:43:00,50.4,43.1,30.14,West,259,0.0,0.0,76,0.00,,,0.00,LWC V2.00 B2112,2013-11-16 00:43:00,
2013-11-15 19:48:00,50.4,43.5,30.14,West,259,0.0,0.0,77,0.00,,,0.00,LWC V2.00 B2112,2013-11-16 00:48:00,
2013-11-15 19:53:00,50.4,43.5,30.14,West,259,0.0,0.0,77,0.00,,,0.00,LWC V2.00 B2112,2013-11-16 00:53:00,
2013-11-15 19:58:00,50.2,43.3,30.14,West,259,0.0,0.0,77,0.00,,,0.00,LWC V2.00 B2112,2013-11-16 00:58:00,
2013-11-15 20:03:00,50.1,43.2,30.14,West,259,0.0,0.0,77,0.00,,,0.00,LWC V2.00 B2112,2013-11-16 01:03:00,
2013-11-15 20:08:00,49.9,43.0,30.14,West,259,0.0,0.0,77,0.00,,,0.00,LWC V2.00 B2112,2013-11-16 01:08:00,
2013-11-15 20:13:00,49.8,43.2,30.14,West,259,0.0,0.0,78,0.00,,,0.00,LWC V2.00 B2112,2013-11-16 01:13:00,
2013-11-15 20:18:00,49.6,43.4,30.14,West,259,0.0,0.0,79,0.00,,,0.00,LWC V2.00 B2112,2013-11-16 01:18:00,
2013-11-15 20:23:00,49.8,43.6,30.14,West,259,0.0,0.0,79,0.00,,,0.00,LWC V2.00 B2112,2013-11-16 01:23:00,
2013-11-15 20:28:00,50.1,43.8,30.14,West,259,0.0,0.0,79,0.00,,,0.00,LWC V2.00 B2112,2013-11-16 01:28:00,
2013-11-15 20:33:00,50.5,43.9,30.14,West,260,0.0,0.0,78,0.00,,,0.00,LWC V2.00 B2112,2013-11-16 01:33:00,
2013-11-15 20:38:00,50.8,43.9,30.14,West,259,0.0,0.0,77,0.00,,,0.00,LWC V2.00 B2112,2013-11-16 01:38:00,
2013-11-15 20:43:00,51.0,44.0,30.14,West,259,0.0,0.0,77,0.00,,,0.00,LWC V2.00 B2112,2013-11-16 01:43:00,
2013-11-15 20:48:00,51.1,44.1,30.13,West,259,0.0,0.0,77,0.00,,,0.00,LWC V2.00 B2112,2013-11-16 01:48:00,
2013-11-15 20:53:00,51.3,44.0,30.13,West,259,0.0,0.0,76,0.00,,,0.00,LWC V2.00 B2112,2013-11-16 01:53:00,
2013-11-15 20:58:00,51.6,43.9,30.13,West,259,0.0,0.0,75,0.00,,,0.00,LWC V2.00 B2112,2013-11-16 01:58:00,
2013-11-15 21:03:00,51.6,43.9,30.14,West,259,0.0,0.0,75,0.00,,,0.00,LWC V2.00 B2112,2013-11-16 02:03:00,
2013-11-15 21:13:00,52.3,44.3,30.14,West,259,0.0,0.0,74,0.00,,,0.00,LWC V2.00 B2112,2013-11-16 02:13:00,
2013-11-15 21:18:00,52.3,44.3,30.13,West,259,0.0,0.0,74,0.00,,,0.00,LWC V2.00 B2112,2013-11-16 02:18:00,
2013-11-15 21:23:00,52.2,44.2,30.13,West,259,0.0,0.0,74,0.00,,,0.00,LWC V2.00 B2112,2013-11-16 02:23:00,
2013-11-15 21:28:00,52.0,44.3,30.13,West,259,0.0,0.0,75,0.00,,,0.00,LWC V2.00 B2112,2013-11-16 02:28:00,
2013-11-15 21:33:00,52.0,44.3,30.14,West,259,0.0,0.0,75,0.00,,,0.00,LWC V2.00 B2112,2013-11-16 02:33:00,
2013-11-15 21:38:00,52.0,44.7,30.14,West,259,0.0,0.0,76,0.00,,,0.00,LWC V2.00 B2112,2013-11-16 02:38:00,
2013-11-15 21:43:00,52.2,44.5,30.14,West,259,0.0,0.0,75,0.00,,,0.00,LWC V2.00 B2112,2013-11-16 02:43:00,
2013-11-15 21:48:00,52.3,44.6,30.14,West,259,0.0,0.0,75,0.00,,,0.00,LWC V2.00 B2112,2013-11-16 02:48:00,
2013-11-15 21:53:00,52.2,44.5,30.14,West,259,0.0,0.0,75,0.00,,,0.00,LWC V2.00 B2112,2013-11-16 02:53:00,
2013-11-15 21:58:00,52.0,44.7,30.14,West,259,0.0,0.0,76,0.00,,,0.00,LWC V2.00 B2112,2013-11-16 02:58:00,
2013-11-15 22:03:00,52.0,44.7,30.13,West,259,0.0,0.0,76,0.00,,,0.00,LWC V2.00 B2112,2013-11-16 03:03:00,
2013-11-15 22:08:00,52.0,44.7,30.13,West,259,0.0,0.0,76,0.00,,,0.00,LWC V2.00 B2112,2013-11-16 03:08:00,
2013-11-15 22:13:00,51.9,44.6,30.13,West,259,0.0,0.0,76,0.00,,,0.00,LWC V2.00 B2112,2013-11-16 03:13:00,
2013-11-15 22:18:00,51.9,44.9,30.14,West,259,0.0,0.0,77,0.00,,,0.00,LWC V2.00 B2112,2013-11-16 03:18:00,
2013-11-15 22:23:00,52.0,45.0,30.14,West,259,0.0,0.0,77,0.00,,,0.00,LWC V2.00 B2112,2013-11-16 03:23:00,
2013-11-15 22:28:00,52.0,45.0,30.14,West,259,0.0,0.0,77,0.00,,,0.00,LWC V2.00 B2112,2013-11-16 03:28:00,
2013-11-15 22:33:00,52.0,45.0,30.14,West,259,0.0,0.0,77,0.00,,,0.00,LWC V2.00 B2112,2013-11-16 03:33:00,
2013-11-15 22:38:00,52.0,45.0,30.14,West,259,0.0,0.0,77,0.00,,,0.00,LWC V2.00 B2112,2013-11-16 03:38:00,
2013-11-15 22:43:00,52.2,45.2,30.14,West,259,0.0,0.0,77,0.00,,,0.00,LWC V2.00 B2112,2013-11-16 03:43:00,
2013-11-15 22:48:00,52.3,45.3,30.14,West,259,0.0,0.0,77,0.00,,,0.00,LWC V2.00 B2112,2013-11-16 03:48:00,
2013-11-15 22:53:00,52.3,45.6,30.14,West,259,0.0,0.0,78,0.00,,,0.00,LWC V2.00 B2112,2013-11-16 03:53:00,
2013-11-15 22:58:00,52.8,46.5,30.14,West,259,0.0,0.0,79,0.00,,,0.00,LWC V2.00 B2112,2013-11-16 03:58:00,
2013-11-15 23:03:00,53.1,46.4,30.15,West,259,0.0,0.0,78,0.00,,,0.00,LWC V2.00 B2112,2013-11-16 04:03:00,
2013-11-15 23:08:00,53.3,46.6,30.15,West,259,0.0,0.0,78,0.00,,,0.00,LWC V2.00 B2112,2013-11-16 04:08:00,
2013-11-15 23:13:00,53.6,46.6,30.15,West,259,0.0,0.0,77,0.00,,,0.00,LWC V2.00 B2112,2013-11-16 04:13:00,
2013-11-15 23:18:00,53.6,46.6,30.14,West,259,0.0,0.0,77,0.00,,,0.00,LWC V2.00 B2112,2013-11-16 04:18:00,
2013-11-15 23:23:00,53.5,46.1,30.14,West,259,0.0,0.0,76,0.00,,,0.00,LWC V2.00 B2112,2013-11-16 04:23:00,
2013-11-15 23:28:00,53.5,46.5,30.14,West,259,0.0,0.0,77,0.00,,,0.00,LWC V2.00 B2112,2013-11-16 04:28:00,
2013-11-15 23:33:00,53.5,47.1,30.14,West,259,0.0,0.0,79,0.00,,,0.00,LWC V2.00 B2112,2013-11-16 04:33:00,
2013-11-15 23:38:00,53.6,47.2,30.14,West,259,0.0,0.0,79,0.00,,,0.00,LWC V2.00 B2112,2013-11-16 04:38:00,
2013-11-15 23:43:00,53.8,47.4,30.14,West,259,0.0,0.0,79,0.00,,,0.00,LWC V2.00 B2112,2013-11-16 04:43:00,
2013-11-15 23:48:00,53.9,47.9,30.14,SSW,212,0.0,0.0,80,0.00,,,0.00,LWC V2.00 B2112,2013-11-16 04:48:00,
2013-11-15 23:53:00,54.1,48.1,30.14,SSW,212,0.0,0.0,80,0.00,,,0.00,LWC V2.00 B2112,2013-11-16 04:53:00,
2013-11-15 23:58:00,54.1,48.7,30.14,SSW,212,0.0,0.0,82,0.00,,,0.00,LWC V2.00 B2112,2013-11-16 04:58:00,